createdAt,value
2018-01-11T00:00:58.481Z,21.23
2018-01-11T00:03:26.865Z,21.50
2018-01-11T00:05:55.254Z,21.57
2018-01-11T00:08:23.638Z,22.00
2018-01-11T00:10:53.418Z,22.92
2018-01-11T00:13:22.082Z,23.83
2018-01-11T00:15:51.527Z,22.35
2018-01-11T00:18:20.271Z,22.00
2018-01-11T00:20:48.665Z,22.47
2018-01-11T00:23:17.261Z,23.20
2018-01-11T00:25:46.019Z,21.37
2018-01-11T00:28:15.525Z,19.92
2018-01-11T00:30:44.971Z,20.98
2018-01-11T00:33:13.345Z,20.37
2018-01-11T00:35:41.743Z,21.03
2018-01-11T00:38:10.313Z,21.43
2018-01-11T00:40:38.681Z,19.30
2018-01-11T00:43:07.352Z,20.87
2018-01-11T00:45:35.952Z,22.27
2018-01-11T00:48:03.992Z,22.17
2018-01-11T00:50:32.360Z,20.73
2018-01-11T00:53:00.740Z,21.07
2018-01-11T00:55:29.216Z,20.53
2018-01-11T00:57:57.594Z,23.40
2018-01-11T01:00:25.969Z,22.93
2018-01-11T01:02:55.382Z,20.53
2018-01-11T01:05:23.761Z,21.27
2018-01-11T01:07:52.153Z,21.30
2018-01-11T01:10:20.609Z,22.30
2018-01-11T01:12:50.205Z,22.05
2018-01-11T01:15:18.694Z,19.43
2018-01-11T01:17:48.112Z,20.48
2018-01-11T01:20:16.765Z,21.67
2018-01-11T01:22:45.149Z,20.45
2018-01-11T01:25:13.521Z,19.20
2018-01-11T01:27:42.205Z,21.20
2018-01-11T01:30:11.665Z,19.10
2018-01-11T01:32:41.053Z,19.60
2018-01-11T01:35:09.437Z,19.50
2018-01-11T01:37:37.880Z,18.87
2018-01-11T01:40:06.259Z,20.87
2018-01-11T01:42:35.669Z,20.87
2018-01-11T01:45:04.053Z,18.80
2018-01-11T01:47:32.744Z,20.17
2018-01-11T01:50:01.871Z,20.03
2018-01-11T01:52:30.833Z,18.43
2018-01-11T01:55:00.022Z,18.70
2018-01-11T01:57:28.699Z,18.80
2018-01-11T01:59:57.389Z,17.90
2018-01-11T02:02:25.773Z,20.30
2018-01-11T02:04:54.162Z,17.70
2018-01-11T02:07:22.553Z,21.00
2018-01-11T02:09:50.974Z,19.33
2018-01-11T02:12:19.462Z,18.63
2018-01-11T02:14:48.890Z,20.50
2018-01-11T02:17:17.263Z,18.77
2018-01-11T02:19:46.666Z,18.80
2018-01-11T02:22:15.453Z,18.87
2018-01-11T02:24:43.902Z,20.20
2018-01-11T02:27:12.552Z,19.53
2018-01-11T02:29:41.217Z,18.85
2018-01-11T02:32:10.508Z,17.13
2018-01-11T02:34:38.874Z,18.50
2018-01-11T02:37:08.185Z,18.03
2018-01-11T02:39:36.825Z,18.73
2018-01-11T02:42:05.266Z,18.30
2018-01-11T02:44:34.645Z,18.47
2018-01-11T02:47:03.014Z,18.40
2018-01-11T02:49:32.640Z,18.20
2018-01-11T02:52:01.025Z,18.67
2018-01-11T02:54:29.678Z,18.10
2018-01-11T02:56:58.053Z,18.60
2018-01-11T02:59:26.761Z,19.03
2018-01-11T03:01:55.145Z,19.80
2018-01-11T03:04:23.797Z,18.15
2018-01-11T03:06:52.696Z,17.70
2018-01-11T03:09:22.100Z,19.75
2018-01-11T03:11:50.557Z,18.87
2018-01-11T03:14:19.248Z,19.97
2018-01-11T03:16:47.623Z,18.27
2018-01-11T03:19:17.049Z,19.42
2018-01-11T03:21:45.564Z,18.67
2018-01-11T03:24:14.166Z,19.20
2018-01-11T03:26:43.396Z,20.43
2018-01-11T03:29:12.710Z,19.53
2018-01-11T03:31:41.076Z,20.30
2018-01-11T03:34:10.538Z,20.17
2018-01-11T03:36:39.286Z,18.80
2018-01-11T03:39:08.678Z,18.90
2018-01-11T03:41:38.082Z,17.27
2018-01-11T03:44:07.505Z,18.70
2018-01-11T03:46:35.960Z,18.43
2018-01-11T03:49:04.610Z,18.92
2018-01-11T03:51:33.078Z,19.90
2018-01-11T03:54:01.651Z,17.57
2018-01-11T03:56:30.105Z,18.07
2018-01-11T03:58:58.825Z,18.63
2018-01-11T04:01:27.481Z,19.27
2018-01-11T04:03:56.137Z,17.83
2018-01-11T04:06:24.915Z,17.17
2018-01-11T04:08:53.561Z,17.83
2018-01-11T04:11:22.218Z,16.80
2018-01-11T04:13:50.617Z,17.00
2018-01-11T04:16:20.047Z,14.97
2018-01-11T04:18:48.593Z,18.33
2018-01-11T04:21:16.972Z,16.93
2018-01-11T04:23:45.533Z,19.33
2018-01-11T04:26:13.917Z,16.40
2018-01-11T04:28:42.415Z,16.57
2018-01-11T04:31:11.143Z,16.75
2018-01-11T04:33:39.650Z,16.60
2018-01-11T04:36:08.326Z,16.50
2018-01-11T04:38:36.722Z,16.27
2018-01-11T04:41:05.226Z,15.93
2018-01-11T04:43:33.891Z,16.50
2018-01-11T04:46:03.432Z,15.60
2018-01-11T04:48:32.090Z,15.82
2018-01-11T04:51:00.750Z,15.43
2018-01-11T04:53:29.410Z,15.50
2018-01-11T04:55:58.834Z,15.18
2018-01-11T04:58:27.485Z,15.07
2018-01-11T05:00:56.188Z,14.27
2018-01-11T05:03:25.606Z,14.97
2018-01-11T05:05:53.994Z,13.40
2018-01-11T05:08:22.363Z,14.00
2018-01-11T05:10:51.969Z,13.50
2018-01-11T05:13:20.474Z,15.30
2018-01-11T05:15:49.118Z,15.73
2018-01-11T05:18:17.923Z,14.67
2018-01-11T05:20:47.102Z,13.67
2018-01-11T05:23:15.486Z,12.93
2018-01-11T05:25:44.901Z,13.77
2018-01-11T05:28:13.609Z,14.70
2018-01-11T05:30:41.981Z,15.17
2018-01-11T05:33:10.355Z,13.20
2018-01-11T05:35:39.109Z,14.13
2018-01-11T05:38:07.478Z,13.97
2018-01-11T05:40:36.989Z,14.23
2018-01-11T05:43:05.471Z,14.57
2018-01-11T05:45:34.477Z,14.82
2018-01-11T05:48:02.849Z,14.60
2018-01-11T05:50:32.449Z,14.48
2018-01-11T05:53:01.352Z,13.40
2018-01-11T05:55:29.717Z,13.60
2018-01-11T05:57:58.109Z,13.77
2018-01-11T06:00:26.756Z,12.10
2018-01-11T06:02:55.897Z,13.50
2018-01-11T06:05:25.374Z,12.90
2018-01-11T06:07:53.751Z,13.00
2018-01-11T06:10:22.126Z,12.10
2018-01-11T06:12:50.662Z,12.97
2018-01-11T06:15:19.102Z,11.67
2018-01-11T06:17:47.750Z,12.05
2018-01-11T06:20:15.948Z,12.83
2018-01-11T06:22:45.274Z,13.90
2018-01-11T06:25:13.831Z,12.90
2018-01-11T06:27:42.250Z,16.07
2018-01-11T06:30:10.622Z,15.30
2018-01-11T06:32:38.993Z,15.43
2018-01-11T06:35:07.989Z,15.00
2018-01-11T06:37:36.437Z,12.90
2018-01-11T06:40:05.849Z,13.50
2018-01-11T06:42:35.277Z,12.50
2018-01-11T06:45:03.326Z,12.10
2018-01-11T06:47:31.791Z,12.07
2018-01-11T06:50:00.177Z,14.07
2018-01-11T06:52:28.565Z,12.20
2018-01-11T06:54:57.023Z,13.88
2018-01-11T06:57:26.455Z,11.73
2018-01-11T06:59:54.833Z,13.30
2018-01-11T07:02:23.529Z,10.93
2018-01-11T07:04:52.036Z,12.55
2018-01-11T07:07:21.184Z,11.97
2018-01-11T07:09:49.570Z,11.73
2018-01-11T07:12:19.034Z,12.30
2018-01-11T07:14:47.402Z,10.40
2018-01-11T07:17:16.052Z,11.63
2018-01-11T07:19:44.450Z,10.47
2018-01-11T07:22:13.686Z,11.43
2018-01-11T07:24:43.103Z,11.02
2018-01-11T07:27:11.488Z,12.60
2018-01-11T07:29:39.859Z,10.57
2018-01-11T07:32:08.434Z,10.03
2018-01-11T07:34:36.825Z,11.50
2018-01-11T07:37:05.200Z,9.70
2018-01-11T07:39:33.581Z,10.80
2018-01-11T07:42:02.243Z,10.88
2018-01-11T07:44:30.671Z,11.20
2018-01-11T07:46:59.809Z,10.80
2018-01-11T07:49:28.187Z,9.77
2018-01-11T07:51:56.571Z,9.73
2018-01-11T07:54:25.989Z,10.15
2018-01-11T07:56:54.649Z,10.23
2018-01-11T07:59:23.027Z,10.00
2018-01-11T08:01:51.415Z,10.60
2018-01-11T08:04:19.826Z,10.03
2018-01-11T08:06:48.356Z,9.77
2018-01-11T08:09:16.990Z,8.95
2018-01-11T08:11:45.577Z,9.47
2018-01-11T08:14:13.766Z,9.63
2018-01-11T08:16:42.992Z,9.70
2018-01-11T08:19:13.044Z,10.63
2018-01-11T08:21:41.714Z,9.98
2018-01-11T08:24:10.310Z,9.87
2018-01-11T08:26:38.702Z,9.17
2018-01-11T08:29:06.890Z,10.23
2018-01-11T08:31:35.293Z,10.77
2018-01-11T08:34:04.478Z,9.67
2018-01-11T08:36:33.033Z,9.50
2018-01-11T08:39:01.397Z,9.90
2018-01-11T08:41:29.781Z,10.10
2018-01-11T08:43:58.157Z,10.27
2018-01-11T08:46:26.837Z,9.77
2018-01-11T08:48:55.496Z,10.63
2018-01-11T08:51:23.689Z,10.63
2018-01-11T08:53:52.209Z,10.00
2018-01-11T08:56:20.742Z,9.70
2018-01-11T08:58:49.118Z,11.10
2018-01-11T09:01:17.488Z,10.83
2018-01-11T09:03:46.134Z,10.57
2018-01-11T09:06:14.496Z,10.40
2018-01-11T09:08:42.880Z,9.83
2018-01-11T09:11:11.658Z,11.77
2018-01-11T09:13:40.434Z,10.50
2018-01-11T09:16:08.990Z,11.80
2018-01-11T09:18:37.710Z,11.43
2018-01-11T09:21:06.790Z,11.23
2018-01-11T09:23:35.677Z,12.90
2018-01-11T09:26:04.143Z,12.20
2018-01-11T09:28:32.723Z,11.57
2018-01-11T09:31:01.205Z,13.03
2018-01-11T09:33:29.682Z,10.40
2018-01-11T09:35:58.593Z,10.57
2018-01-11T09:38:27.305Z,12.23
2018-01-11T09:40:56.253Z,12.57
2018-01-11T09:43:25.519Z,11.73
2018-01-11T09:45:54.653Z,12.53
2018-01-11T09:48:24.102Z,14.85
2018-01-11T09:50:53.489Z,13.73
2018-01-11T09:53:22.139Z,15.63
2018-01-11T09:55:50.524Z,15.00
2018-01-11T09:58:18.983Z,14.87
2018-01-11T10:00:47.353Z,17.15
2018-01-11T10:03:16.040Z,15.32
2018-01-11T10:05:44.688Z,15.60
2018-01-11T10:08:13.340Z,15.50
2018-01-11T10:10:41.804Z,15.37
2018-01-11T10:13:11.214Z,15.63
2018-01-11T10:15:39.594Z,16.13
2018-01-11T10:18:07.974Z,14.37
2018-01-11T10:20:36.344Z,15.40
2018-01-11T10:23:04.710Z,13.53
2018-01-11T10:25:34.050Z,14.07
2018-01-11T10:28:02.422Z,15.60
2018-01-11T10:30:31.258Z,14.52
2018-01-11T10:33:00.506Z,14.73
2018-01-11T10:35:29.162Z,14.13
2018-01-11T10:37:58.462Z,14.47
2018-01-11T10:40:27.766Z,15.30
2018-01-11T10:42:56.134Z,16.57
2018-01-11T10:45:24.522Z,15.10
2018-01-11T10:47:52.910Z,16.20
2018-01-11T10:50:21.467Z,16.00
2018-01-11T10:52:49.961Z,17.23
2018-01-11T10:55:18.429Z,15.93
2018-01-11T10:57:47.663Z,15.63
2018-01-11T11:00:15.373Z,15.83
2018-01-11T11:02:49.858Z,15.50
2018-01-11T11:05:18.523Z,13.57
2018-01-11T11:07:47.169Z,15.70
2018-01-11T11:10:15.962Z,14.07
2018-01-11T11:12:44.326Z,15.30
2018-01-11T11:15:12.895Z,16.00
2018-01-11T11:17:41.437Z,14.75
2018-01-11T11:20:09.889Z,13.00
2018-01-11T11:22:38.261Z,12.90
2018-01-11T11:25:06.433Z,13.20
2018-01-11T11:27:34.823Z,14.03
2018-01-11T11:30:03.833Z,15.70
2018-01-11T11:32:32.806Z,14.25
2018-01-11T11:35:01.282Z,14.80
2018-01-11T11:37:29.977Z,15.67
2018-01-11T11:39:58.380Z,16.63
2018-01-11T11:42:27.476Z,16.50
2018-01-11T11:44:56.141Z,13.93
2018-01-11T11:47:24.522Z,13.13
2018-01-11T11:49:53.014Z,13.77
2018-01-11T11:52:21.706Z,16.57
2018-01-11T11:54:50.121Z,17.17
2018-01-11T11:57:18.777Z,19.77
2018-01-11T11:59:47.522Z,21.67
2018-01-11T12:02:16.957Z,19.75
2018-01-11T12:04:45.486Z,18.80
2018-01-11T12:07:14.192Z,19.15
2018-01-11T12:09:42.586Z,16.50
2018-01-11T12:12:11.702Z,12.63
2018-01-11T12:14:40.361Z,13.62
2018-01-11T12:17:09.034Z,14.60
2018-01-11T12:19:37.409Z,12.83
2018-01-11T12:22:05.773Z,13.03
2018-01-11T12:24:34.371Z,12.87
2018-01-11T12:27:03.090Z,14.40
2018-01-11T12:29:31.689Z,13.43
2018-01-11T12:32:00.361Z,12.98
2018-01-11T12:34:29.013Z,12.15
2018-01-11T12:36:57.740Z,12.30
2018-01-11T12:39:26.129Z,11.40
2018-01-11T12:41:54.760Z,12.77
2018-01-11T12:44:23.544Z,12.43
2018-01-11T12:46:53.278Z,11.45
2018-01-11T12:49:22.040Z,12.05
2018-01-11T12:51:50.414Z,10.67
2018-01-11T12:54:19.922Z,10.98
2018-01-11T12:56:48.355Z,11.27
2018-01-11T12:59:16.726Z,12.40
2018-01-11T13:01:45.311Z,11.37
2018-01-11T13:04:13.946Z,11.10
2018-01-11T13:06:42.357Z,10.83
2018-01-11T13:09:11.094Z,12.97
2018-01-11T13:11:39.734Z,12.73
2018-01-11T13:14:08.290Z,12.17
2018-01-11T13:16:37.062Z,11.30
2018-01-11T13:19:05.734Z,12.77
2018-01-11T13:21:35.186Z,12.95
2018-01-11T13:24:04.049Z,11.53
2018-01-11T13:26:33.251Z,13.23
2018-01-11T13:29:02.453Z,11.27
2018-01-11T13:31:30.860Z,12.63
2018-01-11T13:33:59.505Z,12.85
2018-01-11T13:36:28.187Z,12.20
2018-01-11T13:38:56.389Z,13.20
2018-01-11T13:41:24.765Z,12.23
2018-01-11T13:43:54.150Z,11.63
2018-01-11T13:46:22.570Z,11.60
2018-01-11T13:48:50.953Z,12.83
2018-01-11T13:51:20.089Z,11.77
2018-01-11T13:53:49.511Z,12.35
2018-01-11T13:56:17.877Z,11.43
2018-01-11T13:58:46.580Z,11.90
2018-01-11T14:01:15.237Z,11.73
2018-01-11T14:03:43.618Z,13.00
2018-01-11T14:06:12.172Z,12.17
2018-01-11T14:08:41.314Z,11.70
2018-01-11T14:11:09.684Z,11.13
2018-01-11T14:13:38.326Z,11.85
2018-01-11T14:16:06.894Z,11.73
2018-01-11T14:18:35.646Z,11.70
2018-01-11T14:21:05.232Z,13.02
2018-01-11T14:23:34.140Z,11.57
2018-01-11T14:26:03.434Z,11.52
2018-01-11T14:28:31.842Z,10.17
2018-01-11T14:31:00.233Z,11.27
2018-01-11T14:33:29.177Z,10.93
2018-01-11T14:35:57.573Z,11.27
2018-01-11T14:38:26.224Z,12.73
2018-01-11T14:40:54.829Z,11.90
2018-01-11T14:43:24.305Z,11.50
2018-01-11T14:45:52.697Z,11.20
2018-01-11T14:48:21.069Z,10.07
2018-01-11T14:50:50.485Z,10.00
2018-01-11T14:53:18.885Z,9.73
2018-01-11T14:55:47.349Z,10.30
2018-01-11T14:58:15.993Z,10.60
2018-01-11T15:00:45.141Z,10.50
2018-01-11T15:03:13.803Z,10.20
2018-01-11T15:05:42.452Z,11.05
2018-01-11T15:08:11.123Z,11.57
2018-01-11T15:10:39.641Z,10.77
2018-01-11T15:13:08.209Z,11.10
2018-01-11T15:15:38.377Z,12.27
2018-01-11T15:18:06.755Z,11.90
2018-01-11T15:20:35.129Z,13.20
2018-01-11T15:23:04.325Z,15.13
2018-01-11T15:25:32.698Z,15.43
2018-01-11T15:28:02.097Z,14.67
2018-01-11T15:30:30.476Z,14.43
2018-01-11T15:32:59.180Z,14.93
2018-01-11T15:35:27.546Z,13.73
2018-01-11T15:37:55.924Z,13.37
2018-01-11T15:40:24.376Z,12.67
2018-01-11T15:42:53.046Z,14.10
2018-01-11T15:45:22.482Z,13.10
2018-01-11T15:47:50.854Z,14.03
2018-01-11T15:50:19.520Z,13.53
2018-01-11T15:52:48.173Z,12.80
2018-01-11T15:55:17.110Z,13.47
2018-01-11T15:57:45.485Z,14.50
2018-01-11T16:00:14.705Z,14.40
2018-01-11T16:02:43.094Z,14.30
2018-01-11T16:05:11.569Z,14.43
2018-01-11T16:07:40.233Z,15.48
2018-01-11T16:10:08.889Z,15.70
2018-01-11T16:12:37.277Z,15.10
2018-01-11T16:15:06.761Z,15.63
2018-01-11T16:17:35.147Z,16.90
2018-01-11T16:20:04.252Z,18.30
2018-01-11T16:22:33.111Z,19.60
2018-01-11T16:25:01.950Z,23.00
2018-01-11T16:27:30.336Z,20.90
2018-01-11T16:29:59.532Z,24.27
2018-01-11T16:32:28.096Z,27.07
2018-01-11T16:34:56.516Z,26.80
2018-01-11T16:37:24.909Z,27.80
2018-01-11T16:39:53.550Z,29.77
2018-01-11T16:42:22.226Z,29.33
2018-01-11T16:44:51.047Z,28.52
2018-01-11T16:47:19.418Z,31.20
2018-01-11T16:49:48.070Z,30.00
2018-01-11T16:52:17.492Z,29.98
2018-01-11T16:54:45.875Z,30.00
2018-01-11T16:57:14.254Z,31.93
2018-01-11T16:59:42.453Z,31.60
2018-01-11T17:02:10.849Z,30.60
2018-01-11T17:04:39.353Z,33.43
2018-01-11T17:07:08.805Z,32.70
2018-01-11T17:09:37.513Z,31.75
2018-01-11T17:12:06.166Z,29.50
2018-01-11T17:14:34.885Z,28.73
2018-01-11T17:17:03.595Z,20.85
2018-01-11T17:19:32.109Z,19.07
2018-01-11T17:22:01.603Z,18.47
2018-01-11T17:24:29.981Z,16.90
2018-01-11T17:26:58.501Z,16.47
2018-01-11T17:29:27.180Z,16.23
2018-01-11T17:31:55.842Z,16.05
2018-01-11T17:34:24.216Z,17.30
2018-01-11T17:36:52.873Z,25.83
2018-01-11T17:39:21.060Z,25.30
2018-01-11T17:41:49.707Z,22.03
2018-01-11T17:44:18.648Z,19.50
2018-01-11T17:46:47.118Z,19.90
2018-01-11T17:49:15.678Z,20.23
2018-01-11T17:51:44.074Z,21.67
2018-01-11T17:54:12.778Z,25.97
2018-01-11T17:56:41.426Z,25.92
2018-01-11T17:59:09.806Z,27.17
2018-01-11T18:01:38.250Z,25.77
2018-01-11T18:04:07.581Z,24.83
2018-01-11T18:06:37.023Z,24.03
2018-01-11T18:09:04.729Z,25.37
2018-01-11T18:11:33.373Z,28.15
2018-01-11T18:14:03.349Z,27.70
2018-01-11T18:16:31.729Z,27.80
2018-01-11T18:19:01.141Z,29.45
2018-01-11T18:21:29.534Z,29.87
2018-01-11T18:23:58.196Z,28.48
2018-01-11T18:26:26.689Z,30.98
2018-01-11T18:28:55.073Z,28.47
2018-01-11T18:31:23.453Z,28.50
2018-01-11T18:33:51.817Z,29.67
2018-01-11T18:36:20.208Z,30.63
2018-01-11T18:38:48.242Z,29.93
2018-01-11T18:41:16.618Z,31.80
2018-01-11T18:43:45.013Z,30.90
2018-01-11T18:46:13.646Z,35.23
2018-01-11T18:48:42.376Z,32.00
2018-01-11T18:51:10.818Z,31.50
2018-01-11T18:53:40.254Z,31.33
2018-01-11T18:56:08.634Z,30.80
2018-01-11T18:58:37.290Z,33.20
2018-01-11T19:01:06.430Z,29.90
2018-01-11T19:03:34.826Z,31.73
2018-01-11T19:06:03.377Z,31.67
2018-01-11T19:08:31.746Z,30.57
2018-01-11T19:11:00.405Z,30.67
2018-01-11T19:13:29.065Z,28.40
2018-01-11T19:15:57.705Z,30.67
2018-01-11T19:18:25.827Z,30.63
2018-01-11T19:20:55.408Z,26.98
2018-01-11T19:23:24.840Z,28.97
2018-01-11T19:25:53.217Z,28.23
2018-01-11T19:28:21.638Z,26.73
2018-01-11T19:30:50.949Z,29.70
2018-01-11T19:33:20.023Z,30.37
2018-01-11T19:35:48.685Z,28.15
2018-01-11T19:38:17.343Z,28.38
2018-01-11T19:40:46.046Z,29.30
2018-01-11T19:43:14.432Z,29.07
2018-01-11T19:45:43.666Z,25.37
2018-01-11T19:48:12.259Z,25.63
2018-01-11T19:50:41.708Z,23.62
2018-01-11T19:53:10.859Z,25.77
2018-01-11T19:55:39.398Z,24.30
2018-01-11T19:58:08.056Z,23.55
2018-01-11T20:00:36.542Z,22.15
2018-01-11T20:03:04.928Z,26.90
2018-01-11T20:05:33.586Z,24.08
2018-01-11T20:08:02.235Z,25.73
2018-01-11T20:10:31.564Z,25.70
2018-01-11T20:12:59.954Z,25.50
2018-01-11T20:15:28.322Z,26.00
2018-01-11T20:17:57.270Z,25.08
2018-01-11T20:20:25.925Z,26.25
2018-01-11T20:22:54.297Z,24.37
2018-01-11T20:25:23.586Z,23.97
2018-01-11T20:27:52.593Z,22.95
2018-01-11T20:30:21.247Z,21.25
2018-01-11T20:32:49.897Z,23.45
2018-01-11T20:35:19.293Z,23.87
2018-01-11T20:37:47.660Z,25.63
2018-01-11T20:40:16.353Z,25.23
2018-01-11T20:42:44.825Z,23.77
2018-01-11T20:45:13.534Z,28.07
2018-01-11T20:47:41.911Z,24.67
2018-01-11T20:50:10.297Z,25.33
2018-01-11T20:52:39.517Z,21.23
2018-01-11T20:55:08.224Z,24.80
2018-01-11T20:57:36.819Z,21.67
2018-01-11T21:00:06.692Z,23.70
2018-01-11T21:02:35.177Z,23.17
2018-01-11T21:05:03.060Z,22.70
2018-01-11T21:07:31.442Z,22.10
2018-01-11T21:10:00.099Z,20.88
2018-01-11T21:12:28.484Z,20.57
2018-01-11T21:14:56.854Z,20.10
2018-01-11T21:17:25.315Z,20.90
2018-01-11T21:19:54.742Z,23.38
2018-01-11T21:22:23.234Z,20.67
2018-01-11T21:24:51.614Z,22.20
2018-01-11T21:27:20.277Z,24.35
2018-01-11T21:29:48.918Z,22.50
2018-01-11T21:32:18.070Z,20.90
2018-01-11T21:34:46.733Z,20.95
2018-01-11T21:37:16.141Z,19.80
2018-01-11T21:39:45.553Z,22.10
2018-01-11T21:42:14.234Z,20.87
2018-01-11T21:44:42.889Z,22.17
2018-01-11T21:47:12.020Z,22.33
2018-01-11T21:49:40.401Z,22.57
2018-01-11T21:52:08.961Z,21.97
2018-01-11T21:54:38.381Z,22.83
2018-01-11T21:57:07.065Z,23.33
2018-01-11T21:59:35.445Z,22.10
2018-01-11T22:02:03.769Z,20.83
2018-01-11T22:04:32.424Z,22.27
2018-01-11T22:07:00.801Z,17.07
2018-01-11T22:09:29.395Z,19.00
2018-01-11T22:11:57.814Z,19.47
2018-01-11T22:14:26.229Z,19.00
2018-01-11T22:16:54.601Z,17.47
2018-01-11T22:19:23.110Z,16.90
2018-01-11T22:21:52.576Z,17.63
2018-01-11T22:24:20.960Z,16.60
2018-01-11T22:26:49.494Z,16.00
2018-01-11T22:29:18.908Z,16.50
2018-01-11T22:31:49.022Z,16.40
2018-01-11T22:34:17.706Z,15.20
2018-01-11T22:36:46.388Z,16.80
2018-01-11T22:39:15.604Z,17.60
2018-01-11T22:41:43.989Z,15.97
2018-01-11T22:44:12.402Z,15.80
2018-01-11T22:46:41.384Z,15.90
2018-01-11T22:49:11.113Z,18.33
2018-01-11T22:51:39.775Z,20.70
2018-01-11T22:54:08.158Z,19.73
2018-01-11T22:56:36.830Z,18.00
2018-01-11T22:59:05.206Z,16.80
2018-01-11T23:01:35.044Z,16.50
2018-01-11T23:04:03.265Z,14.60
2018-01-11T23:06:31.585Z,15.57
2018-01-11T23:09:01.827Z,16.57
2018-01-11T23:11:35.914Z,16.73
2018-01-11T23:14:04.566Z,16.15
2018-01-11T23:16:33.044Z,15.50
2018-01-11T23:19:01.438Z,17.87
2018-01-11T23:21:29.810Z,18.50
2018-01-11T23:23:58.229Z,15.73
2018-01-11T23:26:26.613Z,19.27
2018-01-11T23:28:55.217Z,16.90
2018-01-11T23:31:23.881Z,17.67
2018-01-11T23:33:52.277Z,19.60
2018-01-11T23:36:20.930Z,15.88
2018-01-11T23:38:49.314Z,18.67
2018-01-11T23:41:17.990Z,17.00
2018-01-11T23:43:46.461Z,18.90
2018-01-11T23:46:15.457Z,17.95
2018-01-11T23:48:43.845Z,18.10
2018-01-11T23:51:12.279Z,19.23
2018-01-11T23:53:41.604Z,17.67
2018-01-11T23:56:10.087Z,18.48
2018-01-11T23:58:38.500Z,17.27
